sensor_id;sensor_type;location;lat;lon;timestamp;P1;durP1;ratioP1;P2;durP2;ratioP2
78336;SDS011;67610;51.588;7.002;2023-03-21T00:00:59;12.18;;;5.55;;
78336;SDS011;67610;51.588;7.002;2023-03-21T00:03:28;13.25;;;5.82;;
78336;SDS011;67610;51.588;7.002;2023-03-21T00:05:54;12.65;;;5.68;;
78336;SDS011;67610;51.588;7.002;2023-03-21T00:08:21;13.15;;;5.53;;
78336;SDS011;67610;51.588;7.002;2023-03-21T00:10:54;12.35;;;5.78;;
78336;SDS011;67610;51.588;7.002;2023-03-21T00:13:21;12.30;;;5.85;;
78336;SDS011;67610;51.588;7.002;2023-03-21T00:15:47;15.63;;;5.65;;
78336;SDS011;67610;51.588;7.002;2023-03-21T00:18:18;13.23;;;5.72;;
78336;SDS011;67610;51.588;7.002;2023-03-21T00:20:59;15.95;;;6.10;;
78336;SDS011;67610;51.588;7.002;2023-03-21T00:23:26;9.52;;;5.05;;
78336;SDS011;67610;51.588;7.002;2023-03-21T00:25:52;11.35;;;5.63;;
78336;SDS011;67610;51.588;7.002;2023-03-21T00:28:18;10.48;;;4.90;;
78336;SDS011;67610;51.588;7.002;2023-03-21T00:30:43;10.07;;;5.03;;
78336;SDS011;67610;51.588;7.002;2023-03-21T00:33:09;11.50;;;5.40;;
78336;SDS011;67610;51.588;7.002;2023-03-21T00:35:34;12.43;;;5.15;;
78336;SDS011;67610;51.588;7.002;2023-03-21T00:38:00;14.15;;;5.28;;
78336;SDS011;67610;51.588;7.002;2023-03-21T00:40:26;11.75;;;5.78;;
78336;SDS011;67610;51.588;7.002;2023-03-21T00:42:52;15.43;;;5.93;;
78336;SDS011;67610;51.588;7.002;2023-03-21T00:45:18;14.18;;;5.13;;
78336;SDS011;67610;51.588;7.002;2023-03-21T00:47:46;11.40;;;5.13;;
78336;SDS011;67610;51.588;7.002;2023-03-21T00:50:12;9.93;;;4.90;;
78336;SDS011;67610;51.588;7.002;2023-03-21T00:52:37;10.15;;;5.28;;
78336;SDS011;67610;51.588;7.002;2023-03-21T00:55:03;10.73;;;5.18;;
78336;SDS011;67610;51.588;7.002;2023-03-21T00:57:30;10.77;;;4.80;;
78336;SDS011;67610;51.588;7.002;2023-03-21T00:59:56;11.77;;;5.15;;
78336;SDS011;67610;51.588;7.002;2023-03-21T01:02:22;8.95;;;4.85;;
78336;SDS011;67610;51.588;7.002;2023-03-21T01:07:19;8.63;;;4.90;;
78336;SDS011;67610;51.588;7.002;2023-03-21T01:09:46;13.27;;;4.82;;
78336;SDS011;67610;51.588;7.002;2023-03-21T01:12:11;10.50;;;4.30;;
78336;SDS011;67610;51.588;7.002;2023-03-21T01:14:37;11.40;;;4.35;;
78336;SDS011;67610;51.588;7.002;2023-03-21T01:17:02;12.48;;;4.47;;
78336;SDS011;67610;51.588;7.002;2023-03-21T01:19:28;11.48;;;5.05;;
78336;SDS011;67610;51.588;7.002;2023-03-21T01:21:55;10.48;;;4.60;;
78336;SDS011;67610;51.588;7.002;2023-03-21T01:24:22;9.90;;;4.40;;
78336;SDS011;67610;51.588;7.002;2023-03-21T01:26:48;11.77;;;5.38;;
78336;SDS011;67610;51.588;7.002;2023-03-21T01:29:13;9.70;;;4.40;;
78336;SDS011;67610;51.588;7.002;2023-03-21T01:31:38;10.55;;;4.50;;
78336;SDS011;67610;51.588;7.002;2023-03-21T01:34:04;9.60;;;4.68;;
78336;SDS011;67610;51.588;7.002;2023-03-21T01:36:29;9.50;;;5.03;;
78336;SDS011;67610;51.588;7.002;2023-03-21T01:38:56;12.60;;;5.13;;
78336;SDS011;67610;51.588;7.002;2023-03-21T01:43:53;11.82;;;5.53;;
78336;SDS011;67610;51.588;7.002;2023-03-21T01:48:52;9.05;;;5.10;;
78336;SDS011;67610;51.588;7.002;2023-03-21T01:51:22;11.50;;;4.97;;
78336;SDS011;67610;51.588;7.002;2023-03-21T01:53:51;11.23;;;5.00;;
78336;SDS011;67610;51.588;7.002;2023-03-21T01:56:38;8.85;;;4.80;;
78336;SDS011;67610;51.588;7.002;2023-03-21T01:59:06;14.30;;;5.50;;
78336;SDS011;67610;51.588;7.002;2023-03-21T02:01:42;15.00;;;5.43;;
78336;SDS011;67610;51.588;7.002;2023-03-21T02:04:09;11.60;;;5.38;;
78336;SDS011;67610;51.588;7.002;2023-03-21T02:06:37;12.25;;;5.57;;
78336;SDS011;67610;51.588;7.002;2023-03-21T02:09:11;11.05;;;5.30;;
78336;SDS011;67610;51.588;7.002;2023-03-21T02:11:40;8.60;;;4.90;;
78336;SDS011;67610;51.588;7.002;2023-03-21T02:14:11;13.27;;;5.20;;
78336;SDS011;67610;51.588;7.002;2023-03-21T02:16:45;15.07;;;5.90;;
78336;SDS011;67610;51.588;7.002;2023-03-21T02:27:27;12.82;;;4.93;;
78336;SDS011;67610;51.588;7.002;2023-03-21T02:32:46;10.27;;;5.35;;
78336;SDS011;67610;51.588;7.002;2023-03-21T02:35:40;11.35;;;5.25;;
78336;SDS011;67610;51.588;7.002;2023-03-21T02:38:22;10.30;;;5.43;;
78336;SDS011;67610;51.588;7.002;2023-03-21T02:41:01;14.45;;;5.65;;
78336;SDS011;67610;51.588;7.002;2023-03-21T02:43:44;11.27;;;5.70;;
78336;SDS011;67610;51.588;7.002;2023-03-21T02:46:20;11.40;;;6.30;;
78336;SDS011;67610;51.588;7.002;2023-03-21T02:49:13;11.13;;;5.90;;
78336;SDS011;67610;51.588;7.002;2023-03-21T02:51:46;10.95;;;5.20;;
78336;SDS011;67610;51.588;7.002;2023-03-21T02:54:15;12.45;;;5.80;;
78336;SDS011;67610;51.588;7.002;2023-03-21T02:56:43;12.68;;;5.80;;
78336;SDS011;67610;51.588;7.002;2023-03-21T02:59:11;17.50;;;6.65;;
78336;SDS011;67610;51.588;7.002;2023-03-21T03:01:38;12.40;;;6.45;;
78336;SDS011;67610;51.588;7.002;2023-03-21T03:04:03;12.40;;;6.50;;
78336;SDS011;67610;51.588;7.002;2023-03-21T03:21:09;12.40;;;6.03;;
78336;SDS011;67610;51.588;7.002;2023-03-21T03:23:58;14.18;;;6.90;;
78336;SDS011;67610;51.588;7.002;2023-03-21T03:29:02;15.07;;;6.60;;
78336;SDS011;67610;51.588;7.002;2023-03-21T03:31:32;15.68;;;6.65;;
78336;SDS011;67610;51.588;7.002;2023-03-21T03:34:06;12.43;;;6.65;;
78336;SDS011;67610;51.588;7.002;2023-03-21T03:36:36;13.63;;;6.47;;
78336;SDS011;67610;51.588;7.002;2023-03-21T03:39:06;16.73;;;6.05;;
78336;SDS011;67610;51.588;7.002;2023-03-21T03:41:36;13.32;;;6.47;;
78336;SDS011;67610;51.588;7.002;2023-03-21T03:44:06;14.63;;;6.43;;
78336;SDS011;67610;51.588;7.002;2023-03-21T03:46:36;11.15;;;5.65;;
78336;SDS011;67610;51.588;7.002;2023-03-21T03:49:08;13.98;;;6.03;;
78336;SDS011;67610;51.588;7.002;2023-03-21T03:54:32;10.85;;;5.70;;
78336;SDS011;67610;51.588;7.002;2023-03-21T03:57:02;11.85;;;6.00;;
78336;SDS011;67610;51.588;7.002;2023-03-21T03:59:29;13.13;;;6.53;;
78336;SDS011;67610;51.588;7.002;2023-03-21T04:01:54;12.00;;;5.53;;
78336;SDS011;67610;51.588;7.002;2023-03-21T04:04:20;14.27;;;5.35;;
78336;SDS011;67610;51.588;7.002;2023-03-21T04:06:46;14.32;;;5.97;;
78336;SDS011;67610;51.588;7.002;2023-03-21T04:09:16;11.93;;;5.35;;
78336;SDS011;67610;51.588;7.002;2023-03-21T04:11:42;15.20;;;5.82;;
78336;SDS011;67610;51.588;7.002;2023-03-21T04:14:08;10.88;;;5.60;;
78336;SDS011;67610;51.588;7.002;2023-03-21T04:16:33;12.02;;;5.70;;
78336;SDS011;67610;51.588;7.002;2023-03-21T04:18:59;15.48;;;6.43;;
78336;SDS011;67610;51.588;7.002;2023-03-21T04:21:24;15.50;;;5.32;;
78336;SDS011;67610;51.588;7.002;2023-03-21T04:23:51;14.38;;;5.80;;
78336;SDS011;67610;51.588;7.002;2023-03-21T04:26:19;13.40;;;5.90;;
78336;SDS011;67610;51.588;7.002;2023-03-21T04:28:48;12.55;;;5.28;;
78336;SDS011;67610;51.588;7.002;2023-03-21T04:31:15;10.55;;;5.40;;
78336;SDS011;67610;51.588;7.002;2023-03-21T04:33:43;10.90;;;4.97;;
78336;SDS011;67610;51.588;7.002;2023-03-21T04:36:09;11.63;;;4.97;;
78336;SDS011;67610;51.588;7.002;2023-03-21T04:41:16;14.10;;;5.93;;
78336;SDS011;67610;51.588;7.002;2023-03-21T04:43:42;11.10;;;4.88;;
78336;SDS011;67610;51.588;7.002;2023-03-21T04:46:08;12.57;;;5.53;;
78336;SDS011;67610;51.588;7.002;2023-03-21T04:48:34;10.68;;;5.38;;
78336;SDS011;67610;51.588;7.002;2023-03-21T04:50:59;12.30;;;5.38;;
78336;SDS011;67610;51.588;7.002;2023-03-21T04:53:24;11.35;;;6.00;;
78336;SDS011;67610;51.588;7.002;2023-03-21T04:55:50;12.00;;;5.03;;
78336;SDS011;67610;51.588;7.002;2023-03-21T04:58:16;12.65;;;5.80;;
78336;SDS011;67610;51.588;7.002;2023-03-21T05:00:41;14.88;;;5.28;;
78336;SDS011;67610;51.588;7.002;2023-03-21T05:03:07;12.57;;;4.97;;
78336;SDS011;67610;51.588;7.002;2023-03-21T05:05:34;10.43;;;5.00;;
78336;SDS011;67610;51.588;7.002;2023-03-21T05:08:00;9.80;;;5.20;;
78336;SDS011;67610;51.588;7.002;2023-03-21T05:10:26;11.02;;;5.13;;
78336;SDS011;67610;51.588;7.002;2023-03-21T05:12:51;10.70;;;5.28;;
78336;SDS011;67610;51.588;7.002;2023-03-21T05:15:16;11.57;;;5.22;;
78336;SDS011;67610;51.588;7.002;2023-03-21T05:17:42;14.65;;;5.45;;
78336;SDS011;67610;51.588;7.002;2023-03-21T05:20:08;12.57;;;4.85;;
78336;SDS011;67610;51.588;7.002;2023-03-21T05:22:35;12.50;;;5.53;;
78336;SDS011;67610;51.588;7.002;2023-03-21T05:25:05;10.60;;;4.82;;
78336;SDS011;67610;51.588;7.002;2023-03-21T05:27:32;8.90;;;5.03;;
78336;SDS011;67610;51.588;7.002;2023-03-21T05:29:59;11.55;;;4.53;;
78336;SDS011;67610;51.588;7.002;2023-03-21T05:32:35;9.70;;;5.13;;
78336;SDS011;67610;51.588;7.002;2023-03-21T05:35:00;12.07;;;4.78;;
78336;SDS011;67610;51.588;7.002;2023-03-21T05:37:26;10.98;;;5.20;;
78336;SDS011;67610;51.588;7.002;2023-03-21T05:39:52;10.40;;;4.43;;
78336;SDS011;67610;51.588;7.002;2023-03-21T05:42:18;12.70;;;5.30;;
78336;SDS011;67610;51.588;7.002;2023-03-21T05:44:44;10.48;;;5.10;;
78336;SDS011;67610;51.588;7.002;2023-03-21T05:47:11;9.95;;;5.07;;
78336;SDS011;67610;51.588;7.002;2023-03-21T05:49:37;11.93;;;4.47;;
78336;SDS011;67610;51.588;7.002;2023-03-21T05:52:03;11.10;;;5.07;;
78336;SDS011;67610;51.588;7.002;2023-03-21T05:54:28;10.15;;;4.70;;
78336;SDS011;67610;51.588;7.002;2023-03-21T05:56:54;9.20;;;4.70;;
78336;SDS011;67610;51.588;7.002;2023-03-21T05:59:19;12.60;;;5.50;;
78336;SDS011;67610;51.588;7.002;2023-03-21T06:01:45;9.18;;;4.80;;
78336;SDS011;67610;51.588;7.002;2023-03-21T06:04:11;10.77;;;4.90;;
78336;SDS011;67610;51.588;7.002;2023-03-21T06:06:36;12.10;;;5.50;;
78336;SDS011;67610;51.588;7.002;2023-03-21T06:09:01;10.70;;;5.82;;
78336;SDS011;67610;51.588;7.002;2023-03-21T06:11:28;11.25;;;5.00;;
78336;SDS011;67610;51.588;7.002;2023-03-21T06:13:55;15.30;;;4.97;;
78336;SDS011;67610;51.588;7.002;2023-03-21T06:16:20;12.45;;;5.28;;
78336;SDS011;67610;51.588;7.002;2023-03-21T06:18:46;8.10;;;4.72;;
78336;SDS011;67610;51.588;7.002;2023-03-21T06:21:11;10.98;;;4.65;;
78336;SDS011;67610;51.588;7.002;2023-03-21T06:23:37;11.65;;;4.85;;
78336;SDS011;67610;51.588;7.002;2023-03-21T06:26:02;10.15;;;5.18;;
78336;SDS011;67610;51.588;7.002;2023-03-21T06:28:28;8.55;;;4.75;;
78336;SDS011;67610;51.588;7.002;2023-03-21T06:30:53;10.15;;;4.90;;
78336;SDS011;67610;51.588;7.002;2023-03-21T06:33:19;9.85;;;4.93;;
78336;SDS011;67610;51.588;7.002;2023-03-21T06:35:49;8.00;;;4.60;;
78336;SDS011;67610;51.588;7.002;2023-03-21T06:38:18;9.05;;;4.15;;
78336;SDS011;67610;51.588;7.002;2023-03-21T06:40:47;12.52;;;5.03;;
78336;SDS011;67610;51.588;7.002;2023-03-21T06:43:13;12.68;;;5.75;;
78336;SDS011;67610;51.588;7.002;2023-03-21T06:45:38;10.02;;;4.78;;
78336;SDS011;67610;51.588;7.002;2023-03-21T06:48:04;12.65;;;4.90;;
78336;SDS011;67610;51.588;7.002;2023-03-21T06:50:30;10.77;;;4.82;;
78336;SDS011;67610;51.588;7.002;2023-03-21T06:52:55;12.05;;;5.55;;
78336;SDS011;67610;51.588;7.002;2023-03-21T06:55:24;11.05;;;5.10;;
78336;SDS011;67610;51.588;7.002;2023-03-21T06:57:54;11.27;;;5.63;;
78336;SDS011;67610;51.588;7.002;2023-03-21T07:00:21;12.43;;;5.68;;
78336;SDS011;67610;51.588;7.002;2023-03-21T07:02:48;11.25;;;5.53;;
78336;SDS011;67610;51.588;7.002;2023-03-21T07:05:14;11.10;;;5.22;;
78336;SDS011;67610;51.588;7.002;2023-03-21T07:07:40;10.90;;;5.25;;
78336;SDS011;67610;51.588;7.002;2023-03-21T07:10:06;12.73;;;5.47;;
78336;SDS011;67610;51.588;7.002;2023-03-21T07:12:32;10.55;;;5.22;;
78336;SDS011;67610;51.588;7.002;2023-03-21T07:15:00;11.60;;;5.97;;
78336;SDS011;67610;51.588;7.002;2023-03-21T07:17:26;10.55;;;5.50;;
78336;SDS011;67610;51.588;7.002;2023-03-21T07:19:52;9.80;;;4.50;;
78336;SDS011;67610;51.588;7.002;2023-03-21T07:22:17;9.38;;;4.88;;
78336;SDS011;67610;51.588;7.002;2023-03-21T07:24:43;13.57;;;5.32;;
78336;SDS011;67610;51.588;7.002;2023-03-21T07:27:12;10.48;;;4.93;;
78336;SDS011;67610;51.588;7.002;2023-03-21T07:29:38;11.05;;;5.03;;
78336;SDS011;67610;51.588;7.002;2023-03-21T07:32:03;13.52;;;5.35;;
78336;SDS011;67610;51.588;7.002;2023-03-21T07:34:29;10.63;;;5.03;;
78336;SDS011;67610;51.588;7.002;2023-03-21T07:36:57;11.02;;;5.28;;
78336;SDS011;67610;51.588;7.002;2023-03-21T07:39:22;12.98;;;4.72;;
78336;SDS011;67610;51.588;7.002;2023-03-21T07:41:48;10.07;;;4.88;;
78336;SDS011;67610;51.588;7.002;2023-03-21T07:44:13;11.23;;;4.72;;
78336;SDS011;67610;51.588;7.002;2023-03-21T07:46:39;8.55;;;4.60;;
78336;SDS011;67610;51.588;7.002;2023-03-21T07:49:05;7.70;;;4.50;;
78336;SDS011;67610;51.588;7.002;2023-03-21T07:51:30;13.57;;;4.55;;
78336;SDS011;67610;51.588;7.002;2023-03-21T07:53:56;12.18;;;5.10;;
78336;SDS011;67610;51.588;7.002;2023-03-21T07:56:21;11.02;;;4.72;;
78336;SDS011;67610;51.588;7.002;2023-03-21T07:58:46;10.52;;;4.78;;
78336;SDS011;67610;51.588;7.002;2023-03-21T08:01:12;9.57;;;4.55;;
78336;SDS011;67610;51.588;7.002;2023-03-21T08:03:37;8.23;;;4.53;;
78336;SDS011;67610;51.588;7.002;2023-03-21T08:06:03;10.07;;;4.63;;
78336;SDS011;67610;51.588;7.002;2023-03-21T08:08:29;11.38;;;4.32;;
78336;SDS011;67610;51.588;7.002;2023-03-21T08:10:54;9.77;;;4.38;;
78336;SDS011;67610;51.588;7.002;2023-03-21T08:13:20;10.90;;;4.60;;
78336;SDS011;67610;51.588;7.002;2023-03-21T08:15:45;9.68;;;4.50;;
78336;SDS011;67610;51.588;7.002;2023-03-21T08:18:10;9.63;;;4.55;;
78336;SDS011;67610;51.588;7.002;2023-03-21T08:20:38;10.07;;;4.10;;
78336;SDS011;67610;51.588;7.002;2023-03-21T08:23:03;10.35;;;4.50;;
78336;SDS011;67610;51.588;7.002;2023-03-21T08:25:29;7.93;;;4.70;;
78336;SDS011;67610;51.588;7.002;2023-03-21T08:27:54;10.93;;;4.30;;
78336;SDS011;67610;51.588;7.002;2023-03-21T08:30:21;8.73;;;4.13;;
78336;SDS011;67610;51.588;7.002;2023-03-21T08:32:49;9.98;;;4.03;;
78336;SDS011;67610;51.588;7.002;2023-03-21T08:35:16;10.82;;;4.68;;
78336;SDS011;67610;51.588;7.002;2023-03-21T08:37:43;9.18;;;4.10;;
78336;SDS011;67610;51.588;7.002;2023-03-21T08:40:13;8.57;;;4.53;;
78336;SDS011;67610;51.588;7.002;2023-03-21T08:42:40;10.05;;;4.68;;
78336;SDS011;67610;51.588;7.002;2023-03-21T08:45:06;7.47;;;4.03;;
78336;SDS011;67610;51.588;7.002;2023-03-21T08:47:32;8.80;;;4.38;;
78336;SDS011;67610;51.588;7.002;2023-03-21T08:49:58;10.23;;;4.45;;
78336;SDS011;67610;51.588;7.002;2023-03-21T08:52:24;7.97;;;4.18;;
78336;SDS011;67610;51.588;7.002;2023-03-21T08:54:49;6.95;;;3.72;;
78336;SDS011;67610;51.588;7.002;2023-03-21T08:57:15;8.90;;;4.07;;
78336;SDS011;67610;51.588;7.002;2023-03-21T08:59:41;9.05;;;4.20;;
78336;SDS011;67610;51.588;7.002;2023-03-21T09:02:06;9.90;;;4.47;;
78336;SDS011;67610;51.588;7.002;2023-03-21T09:04:31;7.70;;;4.00;;
78336;SDS011;67610;51.588;7.002;2023-03-21T09:06:57;7.55;;;4.10;;
78336;SDS011;67610;51.588;7.002;2023-03-21T09:09:26;8.02;;;4.20;;
78336;SDS011;67610;51.588;7.002;2023-03-21T09:11:54;9.82;;;4.22;;
78336;SDS011;67610;51.588;7.002;2023-03-21T09:14:19;11.38;;;4.03;;
78336;SDS011;67610;51.588;7.002;2023-03-21T09:16:45;8.18;;;4.50;;
78336;SDS011;67610;51.588;7.002;2023-03-21T09:19:10;10.57;;;4.00;;
78336;SDS011;67610;51.588;7.002;2023-03-21T09:21:36;10.52;;;4.38;;
78336;SDS011;67610;51.588;7.002;2023-03-21T09:24:02;10.95;;;4.60;;
78336;SDS011;67610;51.588;7.002;2023-03-21T09:26:30;8.45;;;3.80;;
78336;SDS011;67610;51.588;7.002;2023-03-21T09:28:56;9.88;;;4.30;;
78336;SDS011;67610;51.588;7.002;2023-03-21T09:31:23;10.50;;;4.45;;
78336;SDS011;67610;51.588;7.002;2023-03-21T09:33:49;14.25;;;5.07;;
78336;SDS011;67610;51.588;7.002;2023-03-21T09:36:16;9.18;;;4.45;;
78336;SDS011;67610;51.588;7.002;2023-03-21T09:38:45;9.25;;;4.32;;
78336;SDS011;67610;51.588;7.002;2023-03-21T09:49:29;12.60;;;5.10;;
78336;SDS011;67610;51.588;7.002;2023-03-21T09:52:00;9.40;;;4.60;;
78336;SDS011;67610;51.588;7.002;2023-03-21T09:54:34;8.07;;;4.32;;
78336;SDS011;67610;51.588;7.002;2023-03-21T09:57:24;8.52;;;4.88;;
78336;SDS011;67610;51.588;7.002;2023-03-21T10:00:06;10.10;;;5.03;;
78336;SDS011;67610;51.588;7.002;2023-03-21T10:02:47;8.30;;;4.15;;
78336;SDS011;67610;51.588;7.002;2023-03-21T10:10:31;6.55;;;4.40;;
78336;SDS011;67610;51.588;7.002;2023-03-21T10:13:01;9.57;;;4.55;;
78336;SDS011;67610;51.588;7.002;2023-03-21T10:15:29;8.15;;;4.80;;
78336;SDS011;67610;51.588;7.002;2023-03-21T10:17:59;11.85;;;5.20;;
78336;SDS011;67610;51.588;7.002;2023-03-21T10:20:30;8.77;;;4.28;;
78336;SDS011;67610;51.588;7.002;2023-03-21T10:22:58;9.73;;;4.30;;
78336;SDS011;67610;51.588;7.002;2023-03-21T10:25:29;8.82;;;4.50;;
78336;SDS011;67610;51.588;7.002;2023-03-21T10:27:57;8.23;;;4.47;;
78336;SDS011;67610;51.588;7.002;2023-03-21T10:33:03;8.13;;;4.88;;
78336;SDS011;67610;51.588;7.002;2023-03-21T10:35:33;13.57;;;5.63;;
78336;SDS011;67610;51.588;7.002;2023-03-21T10:38:01;9.63;;;5.25;;
78336;SDS011;67610;51.588;7.002;2023-03-21T10:40:28;9.82;;;5.43;;
78336;SDS011;67610;51.588;7.002;2023-03-21T10:43:14;15.65;;;6.90;;
78336;SDS011;67610;51.588;7.002;2023-03-21T10:45:43;8.20;;;5.70;;
78336;SDS011;67610;51.588;7.002;2023-03-21T10:48:10;12.23;;;6.03;;
78336;SDS011;67610;51.588;7.002;2023-03-21T10:50:36;9.20;;;5.90;;
78336;SDS011;67610;51.588;7.002;2023-03-21T10:53:01;10.70;;;6.20;;
78336;SDS011;67610;51.588;7.002;2023-03-21T10:55:32;12.18;;;5.32;;
78336;SDS011;67610;51.588;7.002;2023-03-21T10:58:00;9.23;;;4.78;;
78336;SDS011;67610;51.588;7.002;2023-03-21T11:00:36;7.45;;;4.70;;
78336;SDS011;67610;51.588;7.002;2023-03-21T11:03:05;11.65;;;5.68;;
78336;SDS011;67610;51.588;7.002;2023-03-21T11:05:38;10.20;;;4.75;;
78336;SDS011;67610;51.588;7.002;2023-03-21T11:08:09;9.27;;;4.75;;
78336;SDS011;67610;51.588;7.002;2023-03-21T11:10:47;10.50;;;5.07;;
78336;SDS011;67610;51.588;7.002;2023-03-21T11:13:41;9.95;;;4.75;;
78336;SDS011;67610;51.588;7.002;2023-03-21T11:16:17;6.55;;;4.07;;
78336;SDS011;67610;51.588;7.002;2023-03-21T11:18:51;8.18;;;4.10;;
78336;SDS011;67610;51.588;7.002;2023-03-21T11:21:21;7.95;;;4.15;;
78336;SDS011;67610;51.588;7.002;2023-03-21T11:23:51;10.00;;;4.68;;
78336;SDS011;67610;51.588;7.002;2023-03-21T11:26:21;9.95;;;4.22;;
78336;SDS011;67610;51.588;7.002;2023-03-21T11:29:22;8.00;;;3.88;;
78336;SDS011;67610;51.588;7.002;2023-03-21T11:32:01;8.48;;;4.05;;
78336;SDS011;67610;51.588;7.002;2023-03-21T11:34:46;10.57;;;4.40;;
78336;SDS011;67610;51.588;7.002;2023-03-21T11:39:55;10.15;;;3.90;;
78336;SDS011;67610;51.588;7.002;2023-03-21T11:42:40;7.28;;;3.70;;
78336;SDS011;67610;51.588;7.002;2023-03-21T11:45:21;9.15;;;4.03;;
78336;SDS011;67610;51.588;7.002;2023-03-21T11:47:52;6.97;;;3.80;;
78336;SDS011;67610;51.588;7.002;2023-03-21T11:50:23;9.20;;;3.92;;
78336;SDS011;67610;51.588;7.002;2023-03-21T12:07:13;8.95;;;4.60;;
78336;SDS011;67610;51.588;7.002;2023-03-21T12:14:55;7.63;;;3.75;;
78336;SDS011;67610;51.588;7.002;2023-03-21T12:17:42;7.15;;;4.30;;
78336;SDS011;67610;51.588;7.002;2023-03-21T12:20:15;10.80;;;3.72;;
78336;SDS011;67610;51.588;7.002;2023-03-21T12:22:57;9.38;;;3.63;;
78336;SDS011;67610;51.588;7.002;2023-03-21T12:25:32;8.93;;;3.75;;
78336;SDS011;67610;51.588;7.002;2023-03-21T12:36:23;8.57;;;3.47;;
78336;SDS011;67610;51.588;7.002;2023-03-21T12:39:24;5.65;;;3.10;;
78336;SDS011;67610;51.588;7.002;2023-03-21T12:44:32;5.28;;;3.33;;
78336;SDS011;67610;51.588;7.002;2023-03-21T12:47:03;8.32;;;3.58;;
78336;SDS011;67610;51.588;7.002;2023-03-21T12:49:34;7.13;;;3.05;;
78336;SDS011;67610;51.588;7.002;2023-03-21T12:52:06;6.95;;;3.33;;
78336;SDS011;67610;51.588;7.002;2023-03-21T12:54:40;8.00;;;3.65;;
78336;SDS011;67610;51.588;7.002;2023-03-21T12:59:47;6.57;;;3.00;;
78336;SDS011;67610;51.588;7.002;2023-03-21T13:02:33;5.80;;;3.08;;
78336;SDS011;67610;51.588;7.002;2023-03-21T13:07:37;5.32;;;3.00;;
78336;SDS011;67610;51.588;7.002;2023-03-21T13:10:17;7.80;;;3.40;;
78336;SDS011;67610;51.588;7.002;2023-03-21T13:15:58;6.80;;;2.90;;
78336;SDS011;67610;51.588;7.002;2023-03-21T13:24:04;7.45;;;3.22;;
78336;SDS011;67610;51.588;7.002;2023-03-21T13:26:40;8.05;;;3.28;;
78336;SDS011;67610;51.588;7.002;2023-03-21T13:29:52;6.63;;;3.13;;
78336;SDS011;67610;51.588;7.002;2023-03-21T13:32:22;6.85;;;3.30;;
78336;SDS011;67610;51.588;7.002;2023-03-21T13:34:57;6.05;;;3.15;;
78336;SDS011;67610;51.588;7.002;2023-03-21T13:37:29;5.53;;;3.45;;
78336;SDS011;67610;51.588;7.002;2023-03-21T13:40:06;7.75;;;3.38;;
78336;SDS011;67610;51.588;7.002;2023-03-21T13:42:45;7.50;;;3.13;;
78336;SDS011;67610;51.588;7.002;2023-03-21T13:48:32;6.60;;;3.50;;
78336;SDS011;67610;51.588;7.002;2023-03-21T13:51:06;5.80;;;3.25;;
78336;SDS011;67610;51.588;7.002;2023-03-21T13:53:35;8.45;;;3.90;;
78336;SDS011;67610;51.588;7.002;2023-03-21T14:03:58;7.05;;;2.92;;
78336;SDS011;67610;51.588;7.002;2023-03-21T14:06:30;7.50;;;3.55;;
78336;SDS011;67610;51.588;7.002;2023-03-21T14:09:00;6.47;;;3.25;;
78336;SDS011;67610;51.588;7.002;2023-03-21T14:11:27;5.32;;;2.90;;
78336;SDS011;67610;51.588;7.002;2023-03-21T14:13:56;6.28;;;3.00;;
78336;SDS011;67610;51.588;7.002;2023-03-21T14:16:24;6.00;;;3.30;;
78336;SDS011;67610;51.588;7.002;2023-03-21T14:19:00;5.55;;;3.00;;
78336;SDS011;67610;51.588;7.002;2023-03-21T14:21:28;5.38;;;2.80;;
78336;SDS011;67610;51.588;7.002;2023-03-21T14:26:32;8.05;;;2.90;;
78336;SDS011;67610;51.588;7.002;2023-03-21T14:29:04;5.97;;;3.15;;
78336;SDS011;67610;51.588;7.002;2023-03-21T14:31:32;5.57;;;2.97;;
78336;SDS011;67610;51.588;7.002;2023-03-21T14:33:58;7.82;;;3.33;;
78336;SDS011;67610;51.588;7.002;2023-03-21T14:36:28;5.80;;;3.10;;
78336;SDS011;67610;51.588;7.002;2023-03-21T14:39:12;6.97;;;3.15;;
78336;SDS011;67610;51.588;7.002;2023-03-21T14:44:40;7.55;;;3.60;;
78336;SDS011;67610;51.588;7.002;2023-03-21T14:47:07;6.65;;;3.47;;
78336;SDS011;67610;51.588;7.002;2023-03-21T14:49:40;5.95;;;3.38;;
78336;SDS011;67610;51.588;7.002;2023-03-21T14:52:08;6.97;;;3.00;;
78336;SDS011;67610;51.588;7.002;2023-03-21T14:54:41;4.57;;;2.92;;
78336;SDS011;67610;51.588;7.002;2023-03-21T14:57:10;4.68;;;2.97;;
78336;SDS011;67610;51.588;7.002;2023-03-21T14:59:38;5.07;;;3.15;;
78336;SDS011;67610;51.588;7.002;2023-03-21T15:02:13;5.82;;;3.15;;
78336;SDS011;67610;51.588;7.002;2023-03-21T15:04:46;5.45;;;3.30;;
78336;SDS011;67610;51.588;7.002;2023-03-21T15:07:27;4.97;;;3.13;;
78336;SDS011;67610;51.588;7.002;2023-03-21T15:09:57;5.43;;;2.90;;
78336;SDS011;67610;51.588;7.002;2023-03-21T15:12:29;5.55;;;3.08;;
78336;SDS011;67610;51.588;7.002;2023-03-21T15:14:55;5.85;;;3.42;;
78336;SDS011;67610;51.588;7.002;2023-03-21T15:17:22;6.57;;;3.15;;
78336;SDS011;67610;51.588;7.002;2023-03-21T15:19:48;4.78;;;3.05;;
78336;SDS011;67610;51.588;7.002;2023-03-21T15:24:43;6.43;;;3.63;;
78336;SDS011;67610;51.588;7.002;2023-03-21T15:27:16;7.65;;;3.28;;
78336;SDS011;67610;51.588;7.002;2023-03-21T15:29:43;5.35;;;3.22;;
78336;SDS011;67610;51.588;7.002;2023-03-21T15:32:14;6.32;;;3.30;;
78336;SDS011;67610;51.588;7.002;2023-03-21T15:34:46;6.78;;;3.28;;
78336;SDS011;67610;51.588;7.002;2023-03-21T15:37:21;6.40;;;3.63;;
78336;SDS011;67610;51.588;7.002;2023-03-21T15:39:49;6.85;;;3.10;;
78336;SDS011;67610;51.588;7.002;2023-03-21T15:42:31;8.35;;;3.90;;
78336;SDS011;67610;51.588;7.002;2023-03-21T15:45:07;5.07;;;3.10;;
78336;SDS011;67610;51.588;7.002;2023-03-21T15:47:48;6.47;;;4.00;;
78336;SDS011;67610;51.588;7.002;2023-03-21T15:50:34;5.68;;;3.60;;
78336;SDS011;67610;51.588;7.002;2023-03-21T15:53:04;5.60;;;3.05;;
78336;SDS011;67610;51.588;7.002;2023-03-21T15:55:37;6.80;;;3.17;;
78336;SDS011;67610;51.588;7.002;2023-03-21T15:58:03;5.47;;;3.25;;
78336;SDS011;67610;51.588;7.002;2023-03-21T16:00:38;5.32;;;3.08;;
78336;SDS011;67610;51.588;7.002;2023-03-21T16:03:12;5.45;;;3.10;;
78336;SDS011;67610;51.588;7.002;2023-03-21T16:05:59;5.60;;;3.22;;
78336;SDS011;67610;51.588;7.002;2023-03-21T16:11:27;5.45;;;2.90;;
78336;SDS011;67610;51.588;7.002;2023-03-21T16:14:00;9.48;;;3.47;;
78336;SDS011;67610;51.588;7.002;2023-03-21T16:16:27;5.55;;;2.92;;
78336;SDS011;67610;51.588;7.002;2023-03-21T16:18:53;5.30;;;3.25;;
78336;SDS011;67610;51.588;7.002;2023-03-21T16:21:21;7.55;;;3.45;;
78336;SDS011;67610;51.588;7.002;2023-03-21T16:23:52;7.68;;;3.42;;
78336;SDS011;67610;51.588;7.002;2023-03-21T16:26:20;8.38;;;3.08;;
78336;SDS011;67610;51.588;7.002;2023-03-21T16:28:48;5.68;;;3.17;;
78336;SDS011;67610;51.588;7.002;2023-03-21T16:31:16;7.50;;;3.33;;
78336;SDS011;67610;51.588;7.002;2023-03-21T16:33:47;5.68;;;3.30;;
78336;SDS011;67610;51.588;7.002;2023-03-21T16:36:13;8.13;;;3.33;;
78336;SDS011;67610;51.588;7.002;2023-03-21T16:38:43;5.05;;;3.15;;
78336;SDS011;67610;51.588;7.002;2023-03-21T16:41:10;6.20;;;3.35;;
78336;SDS011;67610;51.588;7.002;2023-03-21T16:43:36;6.88;;;3.63;;
78336;SDS011;67610;51.588;7.002;2023-03-21T16:48:46;5.18;;;3.00;;
78336;SDS011;67610;51.588;7.002;2023-03-21T16:51:17;5.93;;;3.35;;
78336;SDS011;67610;51.588;7.002;2023-03-21T16:53:46;4.82;;;2.95;;
78336;SDS011;67610;51.588;7.002;2023-03-21T16:56:20;6.80;;;3.20;;
78336;SDS011;67610;51.588;7.002;2023-03-21T16:58:52;8.30;;;3.30;;
78336;SDS011;67610;51.588;7.002;2023-03-21T17:01:19;7.93;;;3.33;;
78336;SDS011;67610;51.588;7.002;2023-03-21T17:03:46;5.90;;;3.30;;